Time;durP1;ratioP1;P1;durP2;ratioP2;P2;SDS_P1;SDS_P2;PMS_P1;PMS_P2;Temp;Humidity;BMP_temperature;BMP_pressure;BME280_temperature;BME280_humidity;BME280_pressure;Samples;Min_cycle;Max_cycle;Signal;HPM_P1;HPM_P2
2024/01/22 00:00:51;;;;;;;;;89.00;63.00;;;;;-5.44;100.00;101433.41;6305212;20;3661693;-51
2024/01/22 00:03:19;;;;;;;;;87.00;63.00;;;;;-4.85;100.00;101436.91;6306368;20;2903371;-47
2024/01/22 00:05:48;;;;;;;;;83.67;61.00;;;;;-4.94;100.00;101445.41;6272694;20;2900393;-52
2024/01/22 00:08:20;;;;;;;;;86.00;60.33;;;;;-4.98;100.00;101434.78;6308218;20;3670166;-51
2024/01/22 00:10:50;;;;;;;;;89.33;63.67;;;;;-4.93;100.00;101439.31;6308589;20;3675333;-48
2024/01/22 00:13:19;;;;;;;;;82.67;58.00;;;;;-4.97;100.00;101436.59;6304083;20;2903526;-50
2024/01/22 00:15:49;;;;;;;;;93.33;61.67;;;;;-5.04;100.00;101434.63;6305375;20;3681502;-49
2024/01/22 00:18:18;;;;;;;;;88.33;61.00;;;;;-5.67;100.00;101420.47;6307565;20;3667987;-48
2024/01/22 00:20:48;;;;;;;;;95.67;65.67;;;;;-5.09;100.00;101411.78;6307423;20;3667960;-52
2024/01/22 00:23:18;;;;;;;;;103.67;67.00;;;;;-5.81;100.00;101406.06;6304068;20;3685871;-52
2024/01/22 00:25:47;;;;;;;;;91.67;61.00;;;;;-5.04;100.00;101408.44;6306510;20;3677339;-49
2024/01/22 00:28:17;;;;;;;;;84.67;63.00;;;;;-4.90;100.00;101413.25;6303984;20;2904434;-51
2024/01/22 00:30:47;;;;;;;;;91.67;66.00;;;;;-5.13;100.00;101409.94;6307382;20;3665895;-50
2024/01/22 00:33:16;;;;;;;;;94.67;63.67;;;;;-5.19;100.00;101420.19;6306292;20;3670153;-52
2024/01/22 00:35:46;;;;;;;;;82.67;59.33;;;;;-5.28;100.00;101413.81;6274933;20;2897321;-50
2024/01/22 00:38:16;;;;;;;;;84.33;60.00;;;;;-5.10;100.00;101407.41;6307031;20;3661691;-50
2024/01/22 00:40:46;;;;;;;;;84.67;58.00;;;;;-5.07;100.00;101410.09;6306403;20;2907795;-52
2024/01/22 00:43:15;;;;;;;;;81.67;60.67;;;;;-5.17;100.00;101418.53;6307409;20;2892020;-49
2024/01/22 00:45:45;;;;;;;;;90.33;63.00;;;;;-5.16;100.00;101409.84;6303498;20;3670173;-48
2024/01/22 00:48:15;;;;;;;;;99.33;63.67;;;;;-5.29;100.00;101410.31;6302283;20;3670102;-50
2024/01/22 00:50:45;;;;;;;;;97.33;68.33;;;;;-5.74;100.00;101400.16;6307913;20;3676421;-50
2024/01/22 00:53:15;;;;;;;;;93.67;60.33;;;;;-5.68;100.00;101392.53;6302046;20;3668443;-49
2024/01/22 00:55:45;;;;;;;;;85.33;60.00;;;;;-5.60;100.00;101388.44;6306944;20;2898377;-51
2024/01/22 00:58:13;;;;;;;;;78.50;54.50;;;;;-5.34;100.00;101389.22;6303431;20;2502495;-52
2024/01/22 01:00:42;;;;;;;;;85.00;63.00;;;;;-5.61;100.00;101388.38;6273673;20;2900487;-49
2024/01/22 01:03:12;;;;;;;;;85.33;63.00;;;;;-5.56;100.00;101387.66;6305008;20;2903471;-51
2024/01/22 01:05:42;;;;;;;;;92.33;66.00;;;;;-5.54;100.00;101380.75;6305244;20;2904587;-51
2024/01/22 01:08:12;;;;;;;;;84.33;62.33;;;;;-6.46;100.00;101385.63;6307618;20;3652464;-47
2024/01/22 01:10:41;;;;;;;;;83.67;58.00;;;;;-7.23;100.00;101378.47;6306691;20;2897261;-50
2024/01/22 01:13:11;;;;;;;;;89.33;60.33;;;;;-5.74;100.00;101382.75;6303833;20;2906674;-50
2024/01/22 01:15:41;;;;;;;;;82.00;57.83;;;;;-5.86;100.00;101360.56;6304790;20;3651289;-50
2024/01/22 01:18:12;;;;;;;;;107.00;70.67;;;;;-5.55;100.00;101384.22;6304911;20;3684238;-50
2024/01/22 01:20:42;;;;;;;;;92.33;64.00;;;;;-6.14;100.00;101388.44;6305034;20;3671245;-48
2024/01/22 01:23:12;;;;;;;;;100.00;64.00;;;;;-6.83;100.00;101388.66;6305604;20;3692989;-49
2024/01/22 01:25:41;;;;;;;;;83.33;60.33;;;;;-5.81;100.00;101374.66;6304391;20;2888846;-49
2024/01/22 01:28:10;;;;;;;;;79.40;56.00;;;;;-5.59;100.00;101381.47;6301695;20;3656386;-48
2024/01/22 01:30:40;;;;;;;;;88.67;65.33;;;;;-5.51;100.00;101386.06;6273892;20;3649268;-50
2024/01/22 01:33:08;;;;;;;;;71.50;57.00;;;;;-5.61;100.00;101384.03;6298235;20;2497172;-48
2024/01/22 01:35:38;;;;;;;;;79.00;55.67;;;;;-5.61;100.00;101381.44;6274274;20;2899070;-52
2024/01/22 01:38:07;;;;;;;;;83.67;57.33;;;;;-5.77;100.00;101379.13;6299077;20;3650351;-49
2024/01/22 01:40:41;;;;;;;;;80.50;54.50;;;;;-5.72;100.00;101379.28;6299913;20;2890917;-50
2024/01/22 01:43:09;;;;;;;;;81.33;57.00;;;;;-5.71;100.00;101371.50;6268532;20;2905474;-49
2024/01/22 01:45:38;;;;;;;;;81.20;58.40;;;;;-5.71;100.00;101375.81;6301382;20;3648176;-52
2024/01/22 01:48:08;;;;;;;;;82.00;55.67;;;;;-5.98;100.00;101354.13;6267766;20;2903570;-46
2024/01/22 01:50:37;;;;;;;;;82.80;55.40;;;;;-6.66;100.00;101352.69;6299709;20;3651409;-47
2024/01/22 01:53:06;;;;;;;;;74.33;54.00;;;;;-5.80;100.00;101348.53;6270511;20;2881687;-49
2024/01/22 01:55:38;;;;;;;;;85.00;55.67;;;;;-5.44;100.00;101344.41;6300667;20;2910802;-51
2024/01/22 01:58:09;;;;;;;;;91.67;62.33;;;;;-5.35;100.00;101344.69;6301763;20;3661201;-50
2024/01/22 02:00:39;;;;;;;;;92.33;57.00;;;;;-5.53;100.00;101345.00;6301098;20;3670043;-49
2024/01/22 02:03:10;;;;;;;;;95.33;65.33;;;;;-6.29;100.00;101333.94;6301450;20;3680888;-51
2024/01/22 02:05:39;;;;;;;;;75.00;57.00;;;;;-5.89;100.00;101336.94;6301623;20;2883603;-48
2024/01/22 02:08:08;;;;;;;;;81.67;55.67;;;;;-5.99;100.00;101339.28;6273175;20;2890918;-46
2024/01/22 02:10:37;;;;;;;;;83.60;58.40;;;;;-6.22;100.00;101343.75;6305586;20;3648892;-50
2024/01/22 02:13:09;;;;;;;;;87.00;59.67;;;;;-5.67;100.00;101346.31;6276533;20;3671224;-46
2024/01/22 02:15:37;;;;;;;;;79.40;57.20;;;;;-5.69;100.00;101343.66;6308438;20;3646083;-50
2024/01/22 02:18:08;;;;;;;;;93.00;57.67;;;;;-5.61;100.00;101346.50;6276837;20;3672196;-47
2024/01/22 02:20:36;;;;;;;;;79.00;53.00;;;;;-5.89;100.00;101348.28;6301133;20;2506556;-47
2024/01/22 02:23:06;;;;;;;;;70.00;51.50;;;;;-5.96;100.00;101352.44;6276095;20;2881555;-48
2024/01/22 02:25:34;;;;;;;;;83.00;57.50;;;;;-6.03;100.00;101363.56;6273726;20;2498266;-47
2024/01/22 02:28:04;;;;;;;;;80.40;54.00;;;;;-5.98;100.00;101361.06;6273780;20;3646205;-47
2024/01/22 02:30:32;;;;;;;;;75.00;50.50;;;;;-6.34;100.00;101356.41;6271930;20;2502522;-51
2024/01/22 02:33:00;;;;;;;;;61.00;48.00;;;;;-6.29;100.00;101367.00;6273384;20;2861714;-52
2024/01/22 02:35:28;;;;;;;;;75.50;52.00;;;;;-6.10;100.00;101355.47;6275098;20;2871163;-51
2024/01/22 02:37:57;;;;;;;;;81.00;58.40;;;;;-6.31;100.00;101350.41;6274349;20;3645049;-50
2024/01/22 02:40:26;;;;;;;;;73.00;54.00;;;;;-6.25;100.00;101354.09;6276673;20;2888843;-54
2024/01/22 02:42:54;;;;;;;;;79.00;53.60;;;;;-6.23;100.00;101348.94;6274611;20;3645079;-54
2024/01/22 02:45:23;;;;;;;;;71.00;54.00;;;;;-6.49;100.00;101346.31;6274633;20;2889920;-55
2024/01/22 02:47:53;;;;;;;;;80.67;53.33;;;;;-6.55;100.00;101346.13;6278526;20;2889877;-56
2024/01/22 02:50:22;;;;;;;;;70.00;52.00;;;;;-6.21;100.00;101350.75;6308598;20;2884743;-56
2024/01/22 02:52:51;;;;;;;;;79.20;54.20;;;;;-6.50;100.00;101344.56;6277298;20;3647158;-54
2024/01/22 02:55:20;;;;;;;;;68.33;42.00;;;;;-5.97;100.00;101340.22;6277542;20;3602333;-56
2024/01/22 02:57:48;;;;;;;;;82.00;54.00;;;;;-6.28;100.00;101340.94;6273610;20;2881920;-56
2024/01/22 03:00:17;;;;;;;;;79.00;54.33;;;;;-6.50;100.00;101331.50;6276842;20;2887803;-56
2024/01/22 03:02:45;;;;;;;;;65.00;53.00;;;;;-6.21;100.00;101331.59;6304012;20;2505594;-56
2024/01/22 03:05:15;;;;;;;;;87.00;59.33;;;;;-6.35;100.00;101323.25;6275988;20;3671188;-56
2024/01/22 03:07:44;;;;;;;;;77.60;53.20;;;;;-6.23;100.00;101322.78;6306177;20;3645118;-54
2024/01/22 03:10:13;;;;;;;;;82.00;57.67;;;;;-6.11;100.00;101323.19;6277760;20;2892989;-56
2024/01/22 03:12:42;;;;;;;;;75.00;48.50;;;;;-5.98;100.00;101324.47;6307109;20;2874270;-53
2024/01/22 03:15:11;;;;;;;;;81.00;51.67;;;;;-6.08;100.00;101320.69;6273723;20;2879518;-54
2024/01/22 03:17:40;;;;;;;;;81.60;55.60;;;;;-5.90;100.00;101322.94;6302611;20;3640855;-56
2024/01/22 03:20:10;;;;;;;;;82.60;58.60;;;;;-6.93;100.00;101311.72;6271152;20;3640907;-57
2024/01/22 03:22:40;;;;;;;;;85.20;61.20;;;;;-7.51;100.00;101307.84;6272561;20;3657524;-54
2024/01/22 03:25:08;;;;;;;;;74.50;55.50;;;;;-6.79;100.00;101313.91;6272119;20;2496133;-55
2024/01/22 03:27:38;;;;;;;;;81.33;57.00;;;;;-7.12;100.00;101309.28;6272402;20;2903595;-54
2024/01/22 03:30:08;;;;;;;;;72.80;51.80;;;;;-7.12;100.00;101304.06;6306923;20;3631587;-55
2024/01/22 03:32:36;;;;;;;;;75.00;54.50;;;;;-7.59;100.00;101303.19;6269397;20;2502520;-49
2024/01/22 03:35:04;;;;;;;;;83.50;57.50;;;;;-7.34;100.00;101295.47;6270206;20;2562872;-50
2024/01/22 03:37:34;;;;;;;;;93.67;60.67;;;;;-7.62;100.00;101300.47;6273709;20;2906600;-48
2024/01/22 03:40:04;;;;;;;;;88.67;63.00;;;;;-7.60;100.00;101294.50;6303437;20;3670156;-48
2024/01/22 03:42:34;;;;;;;;;90.67;60.33;;;;;-7.19;100.00;101284.69;6300438;20;3672293;-48
2024/01/22 03:45:05;;;;;;;;;92.50;64.33;;;;;-7.58;100.00;101289.31;6303724;20;3670145;-49
2024/01/22 03:47:33;;;;;;;;;77.50;52.00;;;;;-6.93;100.00;101282.09;6303518;20;3633620;-49
2024/01/22 03:50:06;;;;;;;;;87.00;61.00;;;;;-7.43;100.00;101282.06;6307402;20;2909822;-45
2024/01/22 03:52:36;;;;;;;;;94.33;64.67;;;;;-7.20;100.00;101290.75;6305151;20;3666017;-46
2024/01/22 03:55:07;;;;;;;;;84.20;58.40;;;;;-7.20;100.00;101295.06;6306203;20;3649213;-46
2024/01/22 03:57:36;;;;;;;;;87.17;64.50;;;;;-7.41;100.00;101296.06;6271796;20;3670083;-45
2024/01/22 04:00:07;;;;;;;;;87.00;57.67;;;;;-7.14;100.00;101306.59;6300662;20;3666933;-45
2024/01/22 04:02:35;;;;;;;;;87.50;55.50;;;;;-7.14;100.00;101305.72;6300963;20;2502548;-48
2024/01/22 04:05:07;;;;;;;;;104.00;69.33;;;;;-7.73;100.00;101292.25;6274084;20;3694196;-48
2024/01/22 04:07:39;;;;;;;;;83.33;61.00;;;;;-6.90;100.00;101298.78;6305001;20;2897237;-49
2024/01/22 04:10:08;;;;;;;;;82.50;54.00;;;;;-7.07;100.00;101303.41;6303484;20;2502364;-45
2024/01/22 04:12:39;;;;;;;;;81.67;58.00;;;;;-6.43;100.00;101309.94;6275710;20;2903488;-45
2024/01/22 04:15:08;;;;;;;;;80.00;56.00;;;;;-6.15;100.00;101312.59;6306847;20;2910828;-48
2024/01/22 04:17:38;;;;;;;;;75.67;57.67;;;;;-6.44;100.00;101323.84;6273686;20;2898323;-46
2024/01/22 04:20:09;;;;;;;;;78.00;53.33;;;;;-6.74;100.00;101321.09;6301273;20;2905599;-45
2024/01/22 04:22:39;;;;;;;;;81.67;56.67;;;;;-7.50;100.00;101316.59;6306099;20;2899428;-48
2024/01/22 04:25:08;;;;;;;;;71.00;52.00;;;;;-7.18;100.00;101328.22;6304486;20;3644037;-45
2024/01/22 04:27:37;;;;;;;;;63.60;52.20;;;;;-7.69;100.00;101325.41;6269826;20;3613210;-49
2024/01/22 04:30:06;;;;;;;;;88.67;60.67;;;;;-7.60;100.00;101323.19;6270706;20;2912865;-46
2024/01/22 04:32:35;;;;;;;;;82.00;58.67;;;;;-7.21;100.00;101324.59;6297689;20;2907563;-47
2024/01/22 04:35:04;;;;;;;;;83.00;60.00;;;;;-7.21;100.00;101315.06;6299120;20;2898214;-46
2024/01/22 04:37:34;;;;;;;;;92.67;65.33;;;;;-7.53;100.00;101298.19;6271084;20;3676325;-47
2024/01/22 04:40:14;;;;;;;;;86.67;61.00;;;;;-6.81;100.00;101303.44;6305704;20;3659633;-46
2024/01/22 04:42:44;;;;;;;;;80.40;60.80;;;;;-7.33;100.00;101310.28;6301078;20;3647568;-45
2024/01/22 04:45:14;;;;;;;;;94.67;59.67;;;;;-7.58;100.00;101310.19;6272593;20;3675262;-47
2024/01/22 04:47:43;;;;;;;;;88.40;67.40;;;;;-7.26;100.00;101313.13;6300845;20;3657574;-46
2024/01/22 04:50:12;;;;;;;;;93.00;66.00;;;;;-7.25;100.00;101304.47;6275300;20;3681594;-45
2024/01/22 04:52:41;;;;;;;;;73.80;53.60;;;;;-7.57;100.00;101298.94;6303651;20;3635669;-46
2024/01/22 04:55:11;;;;;;;;;88.33;58.67;;;;;-7.81;100.00;101299.78;6272598;20;2900345;-49
2024/01/22 04:57:48;;;;;;;;;80.40;56.60;;;;;-7.46;100.00;101302.81;6301162;20;3653406;-48
2024/01/22 05:00:19;;;;;;;;;90.33;63.00;;;;;-7.46;100.00;101287.19;6272164;20;3675317;-46
2024/01/22 05:02:48;;;;;;;;;45.00;45.00;;;;;-6.80;100.00;101283.44;6305291;20;3603385;-48
2024/01/22 05:05:18;;;;;;;;;76.33;52.00;;;;;-6.16;100.00;101287.28;6274741;20;3596083;-49
2024/01/22 05:07:47;;;;;;;;;83.20;58.00;;;;;-6.09;100.00;101292.75;6269612;20;3658116;-48
2024/01/22 05:10:15;;;;;;;;;81.50;56.00;;;;;-7.65;100.00;101295.16;6274132;20;2892982;-46
2024/01/22 05:12:45;;;;;;;;;85.00;54.33;;;;;-7.64;100.00;101300.41;6274387;20;3650304;-46
2024/01/22 05:15:14;;;;;;;;;74.80;55.80;;;;;-7.94;100.00;101307.94;6304655;20;3631640;-46
2024/01/22 05:17:43;;;;;;;;;72.60;52.40;;;;;-6.93;100.00;101311.72;6272505;20;3642958;-48
2024/01/22 05:20:12;;;;;;;;;96.67;65.33;;;;;-7.41;100.00;101311.72;6271401;20;3679520;-46
2024/01/22 05:22:41;;;;;;;;;79.00;54.50;;;;;-7.52;100.00;101308.69;6303404;20;2887884;-45
2024/01/22 05:25:11;;;;;;;;;106.67;72.00;;;;;-7.29;100.00;101316.50;6270419;20;3682602;-49
2024/01/22 05:27:46;;;;;;;;;73.00;58.00;;;;;-7.12;100.00;101314.50;6304610;20;3630447;-47
2024/01/22 05:30:15;;;;;;;;;74.80;53.20;;;;;-7.00;100.00;101320.19;6273780;20;3633686;-46
2024/01/22 05:32:44;;;;;;;;;75.50;57.00;;;;;-6.54;100.00;101324.38;6272169;20;2889961;-46
2024/01/22 05:35:15;;;;;;;;;78.50;63.00;;;;;-6.76;100.00;101306.22;6273070;20;2874261;-47
2024/01/22 05:37:43;;;;;;;;;87.00;66.00;;;;;-6.90;100.00;101296.19;6269798;20;2887828;-48
2024/01/22 05:40:16;;;;;;;;;105.83;73.50;;;;;-6.95;100.00;101292.50;6270512;20;4447104;-47
2024/01/22 05:42:46;;;;;;;;;77.20;51.20;;;;;-6.44;100.00;101297.72;6302266;20;3640939;-46
2024/01/22 05:45:16;;;;;;;;;99.33;66.33;;;;;-7.10;100.00;101287.63;6279609;20;3680566;-45
2024/01/22 05:47:46;;;;;;;;;72.25;50.00;;;;;-6.85;100.00;101291.09;6309141;20;3664823;-47
2024/01/22 05:50:14;;;;;;;;;76.50;54.00;;;;;-7.60;100.00;101278.84;6306062;20;2501310;-48
2024/01/22 05:52:44;;;;;;;;;88.33;58.67;;;;;-7.16;100.00;101279.59;6277177;20;2907746;-46
2024/01/22 05:55:12;;;;;;;;;50.00;44.00;;;;;-7.37;100.00;101282.31;6306496;20;2510710;-45
2024/01/22 05:57:47;;;;;;;;;68.40;50.80;;;;;-7.31;100.00;101272.09;6276797;20;3624265;-49
2024/01/22 06:00:18;;;;;;;;;79.20;53.40;;;;;-7.19;100.00;101273.34;6275413;20;3651362;-45
2024/01/22 06:02:48;;;;;;;;;77.50;51.75;;;;;-6.80;100.00;101265.16;6276313;20;3635759;-45
2024/01/22 06:05:18;;;;;;;;;75.00;49.00;;;;;-7.17;100.00;101269.09;6304008;20;3626361;-45
2024/01/22 06:07:47;;;;;;;;;81.00;58.40;;;;;-7.89;100.00;101267.31;6276207;20;3640924;-46
2024/01/22 06:10:16;;;;;;;;;81.40;54.20;;;;;-7.51;100.00;101265.25;6277829;20;3650379;-45
2024/01/22 06:12:45;;;;;;;;;65.00;45.80;;;;;-7.18;100.00;101267.31;6273809;20;3638788;-47
2024/01/22 06:15:15;;;;;;;;;89.00;60.67;;;;;-6.97;100.00;101262.84;6278020;20;3672144;-45
2024/01/22 06:17:44;;;;;;;;;76.33;57.00;;;;;-7.20;100.00;101268.97;6308188;20;2893070;-48
2024/01/22 06:20:14;;;;;;;;;100.50;65.00;;;;;-7.37;100.00;101271.88;6306847;20;4450231;-49
2024/01/22 06:22:43;;;;;;;;;82.80;59.20;;;;;-7.17;100.00;101284.75;6305805;20;3654419;-50
2024/01/22 06:25:13;;;;;;;;;86.33;59.33;;;;;-6.56;100.00;101281.63;6277913;20;2900416;-47
2024/01/22 06:27:44;;;;;;;;;86.17;59.83;;;;;-6.75;100.00;101279.25;6306037;20;3670049;-45
2024/01/22 06:30:15;;;;;;;;;80.00;52.20;;;;;-7.02;100.00;101272.25;6308155;20;3644904;-45
2024/01/22 06:32:44;;;;;;;;;70.00;52.00;;;;;-7.03;100.00;101283.50;6276779;20;2883600;-46
2024/01/22 06:35:15;;;;;;;;;89.33;54.00;;;;;-6.67;100.00;101264.72;6277032;20;3662730;-47
2024/01/22 06:37:44;;;;;;;;;83.00;48.40;;;;;-6.88;100.00;101270.09;6306067;20;3640975;-48
2024/01/22 06:40:12;;;;;;;;;68.00;52.00;;;;;-6.49;100.00;101262.72;6271728;20;2510709;-46
2024/01/22 06:42:40;;;;;;;;;71.00;49.00;;;;;-6.80;100.00;101255.59;6273294;20;2872201;-48
2024/01/22 06:45:08;;;;;;;;;70.00;57.00;;;;;-6.96;100.00;101268.94;6271261;20;2502356;-47
2024/01/22 06:47:37;;;;;;;;;61.67;46.67;;;;;-6.34;100.00;101262.34;6276917;20;2892122;-46
2024/01/22 06:50:06;;;;;;;;;78.00;52.00;;;;;-6.00;100.00;101269.53;6307566;20;2500236;-47
2024/01/22 06:52:36;;;;;;;;;72.50;49.00;;;;;-6.46;100.00;101267.16;6277666;20;2884672;-48
2024/01/22 06:55:07;;;;;;;;;91.17;63.50;;;;;-7.32;100.00;101278.16;6273931;20;4431514;-46
2024/01/22 06:57:36;;;;;;;;;74.20;55.40;;;;;-7.48;100.00;101283.63;6308232;20;3628484;-47
2024/01/22 07:00:07;;;;;;;;;83.00;56.00;;;;;-7.32;100.00;101280.75;6276447;20;3664813;-46
2024/01/22 07:02:38;;;;;;;;;92.00;57.67;;;;;-7.30;100.00;101284.28;6274682;20;3672225;-46
2024/01/22 07:05:08;;;;;;;;;81.60;57.20;;;;;-7.23;100.00;101289.75;6308818;20;3644108;-46
2024/01/22 07:07:39;;;;;;;;;90.33;55.33;;;;;-7.16;100.00;101287.41;6278969;20;2908694;-50
2024/01/22 07:10:10;;;;;;;;;78.00;57.00;;;;;-6.97;100.00;101288.97;6305574;20;2882642;-49
2024/01/22 07:12:41;;;;;;;;;67.00;50.50;;;;;-7.32;100.00;101285.97;6272917;20;2502594;-48
2024/01/22 07:15:12;;;;;;;;;75.00;50.50;;;;;-6.86;100.00;101292.81;6273424;20;2561731;-47
2024/01/22 07:17:44;;;;;;;;;84.40;55.20;;;;;-7.28;100.00;101311.34;6275206;20;3659666;-49
2024/01/22 07:20:16;;;;;;;;;83.80;57.40;;;;;-6.53;100.00;101318.34;6274769;20;3641293;-53
2024/01/22 07:22:45;;;;;;;;;78.00;54.00;;;;;-7.24;100.00;101325.41;6272461;20;2505466;-48
2024/01/22 07:25:16;;;;;;;;;79.00;53.00;;;;;-6.53;100.00;101323.56;6273656;20;2500335;-49
2024/01/22 07:27:45;;;;;;;;;94.33;62.33;;;;;-6.01;100.00;101327.88;6272323;20;2910922;-50
2024/01/22 07:30:14;;;;;;;;;68.00;51.50;;;;;-6.18;100.00;101322.09;6308727;20;2872146;-48
2024/01/22 07:32:45;;;;;;;;;89.67;66.00;;;;;-6.05;100.00;101328.63;6276521;20;3661731;-48
2024/01/22 07:35:15;;;;;;;;;90.67;60.67;;;;;-5.64;100.00;101322.88;6304062;20;3660687;-46
2024/01/22 07:37:44;;;;;;;;;80.50;58.00;;;;;-5.72;100.00;101311.28;6308175;20;2887850;-50
2024/01/22 07:40:14;;;;;;;;;74.00;53.00;;;;;-7.30;100.00;101314.72;6272013;20;2501304;-49
2024/01/22 07:42:44;;;;;;;;;63.33;44.33;;;;;-7.65;100.00;101316.00;6274905;20;2904534;-47
2024/01/22 07:45:13;;;;;;;;;65.50;50.00;;;;;-6.86;100.00;101321.53;6304404;20;2510801;-48
2024/01/22 07:47:43;;;;;;;;;66.33;48.67;;;;;-6.76;100.00;101324.50;6277363;20;3619036;-46
2024/01/22 07:50:16;;;;;;;;;73.00;51.00;;;;;-6.65;100.00;101321.41;6274302;20;2884643;-50
2024/01/22 07:52:46;;;;;;;;;70.00;45.00;;;;;-5.80;100.00;101331.97;6276906;20;3661700;-49
2024/01/22 07:55:17;;;;;;;;;71.50;49.50;;;;;-6.28;100.00;101325.25;6307471;20;2883606;-48
2024/01/22 07:57:46;;;;;;;;;67.00;48.50;;;;;-6.12;100.00;101331.88;6276753;20;2870178;-47
2024/01/22 08:00:15;;;;;;;;;68.80;47.60;;;;;-5.60;100.00;101335.22;6273096;20;3650304;-47
2024/01/22 08:02:45;;;;;;;;;76.50;54.00;;;;;-5.83;100.00;101331.88;6276215;20;2887745;-46
2024/01/22 08:05:14;;;;;;;;;78.00;48.50;;;;;-6.16;100.00;101323.88;6274677;20;2889863;-46
2024/01/22 08:07:43;;;;;;;;;79.00;49.00;;;;;-6.48;100.00;101324.56;6274206;20;2879558;-46
2024/01/22 08:10:14;;;;;;;;;52.00;36.67;;;;;-7.10;100.00;101326.78;6275413;20;2887842;-45
2024/01/22 08:12:43;;;;;;;;;59.00;49.00;;;;;-6.56;100.00;101327.78;6304233;20;2860704;-46
2024/01/22 08:15:14;;;;;;;;;70.00;51.50;;;;;-6.44;100.00;101326.47;6272515;20;2876355;-47
2024/01/22 08:17:48;;;;;;;;;66.00;48.80;;;;;-5.77;100.00;101330.31;6273555;20;3614822;-48
2024/01/22 08:20:17;;;;;;;;;69.33;49.33;;;;;-5.93;100.00;101333.31;6272067;20;2886745;-48
2024/01/22 08:22:49;;;;;;;;;64.00;40.00;;;;;-6.27;100.00;101332.25;6307410;20;3661740;-47
2024/01/22 08:25:20;;;;;;;;;64.33;43.67;;;;;-6.87;100.00;101329.34;6307894;20;2906688;-46
2024/01/22 08:27:49;;;;;;;;;63.50;49.00;;;;;-6.54;100.00;101332.22;6306800;20;2874279;-48
2024/01/22 08:30:17;;;;;;;;;62.00;49.00;;;;;-6.17;100.00;101323.00;6272848;20;2849266;-45
2024/01/22 08:32:46;;;;;;;;;75.20;50.00;;;;;-6.05;100.00;101312.94;6273059;20;3642948;-47
2024/01/22 08:35:17;;;;;;;;;56.50;46.00;;;;;-5.97;100.00;101316.69;6275081;20;2879472;-50
2024/01/22 08:37:52;;;;;;;;;71.00;49.00;;;;;-6.17;100.00;101312.53;6276695;20;2880515;-48
2024/01/22 08:40:23;;;;;;;;;75.60;49.80;;;;;-6.01;100.00;101320.03;6273501;20;3631593;-46
2024/01/22 08:42:55;;;;;;;;;116.00;84.67;;;;;-5.81;100.00;101315.41;6277003;20;3701419;-46
2024/01/22 08:45:25;;;;;;;;;102.33;75.00;;;;;-5.71;100.00;101316.59;6272434;20;3696120;-49
2024/01/22 08:47:54;;;;;;;;;80.00;54.50;;;;;-5.76;100.00;101315.56;6269818;20;2889925;-48
2024/01/22 08:50:22;;;;;;;;;71.50;57.50;;;;;-5.93;100.00;101322.84;6273037;20;2867064;-49
2024/01/22 08:52:53;;;;;;;;;60.00;48.20;;;;;-5.64;100.00;101318.50;6273932;20;3621223;-46
2024/01/22 08:55:23;;;;;;;;;95.67;66.00;;;;;-5.80;100.00;101313.66;6275871;20;3663894;-49
2024/01/22 08:57:53;;;;;;;;;72.00;57.00;;;;;-5.34;100.00;101315.94;6307051;20;2885795;-46
2024/01/22 09:00:24;;;;;;;;;65.00;53.00;;;;;-5.71;100.00;101316.59;6277165;20;2851409;-46
2024/01/22 09:02:52;;;;;;;;;75.00;58.00;;;;;-4.95;100.00;101324.88;6272446;20;2879702;-49
2024/01/22 09:05:23;;;;;;;;;101.67;75.67;;;;;-5.69;100.00;101304.41;6276285;20;2906613;-50
2024/01/22 09:07:52;;;;;;;;;71.67;51.67;;;;;-5.60;100.00;101307.31;6306656;20;2886912;-49
2024/01/22 09:10:26;;;;;;;;;72.60;53.40;;;;;-5.84;100.00;101311.81;6305347;20;3616010;-50
2024/01/22 09:12:55;;;;;;;;;89.00;65.67;;;;;-5.46;100.00;101307.72;6271717;20;3659760;-47
2024/01/22 09:15:25;;;;;;;;;96.67;68.33;;;;;-5.57;100.00;101310.03;6306867;20;3677328;-46
2024/01/22 09:17:55;;;;;;;;;81.67;57.67;;;;;-5.16;100.00;101299.88;6311742;20;2900426;-48
2024/01/22 09:20:25;;;;;;;;;80.33;60.00;;;;;-5.87;100.00;101306.47;6313596;20;2894129;-48
2024/01/22 09:22:55;;;;;;;;;78.67;54.00;;;;;-4.52;100.00;101297.22;6312499;20;2894083;-52
2024/01/22 09:25:23;;;;;;;;;77.00;53.00;;;;;-4.88;100.00;101295.38;6309687;20;2495104;-47
2024/01/22 09:27:51;;;;;;;;;77.50;63.50;;;;;-5.18;100.00;101298.06;6274401;20;2502412;-49
2024/01/22 09:30:20;;;;;;;;;76.50;52.00;;;;;-5.16;100.00;101289.41;6277360;20;2878491;-49
2024/01/22 09:32:50;;;;;;;;;70.67;51.00;;;;;-5.02;100.00;101283.66;6278953;20;2875519;-49
2024/01/22 09:35:21;;;;;;;;;118.67;94.33;;;;;-4.95;100.00;101280.34;6308373;20;3701341;-47
2024/01/22 09:37:50;;;;;;;;;89.67;63.00;;;;;-4.67;100.00;101280.22;6277513;20;3677359;-46
2024/01/22 09:40:25;;;;;;;;;127.67;96.67;;;;;-4.42;100.00;101270.38;6312963;20;3694046;-45
2024/01/22 09:43:04;;;;;;;;;95.33;66.00;;;;;-4.72;100.00;101268.75;6278499;20;3669048;-46
2024/01/22 09:45:34;;;;;;;;;93.33;68.33;;;;;-4.55;100.00;101274.44;6312506;20;3653399;-48
2024/01/22 09:48:05;;;;;;;;;97.00;63.00;;;;;-4.85;100.00;101270.16;6310631;20;3654444;-48
2024/01/22 09:50:35;;;;;;;;;103.67;73.33;;;;;-4.88;100.00;101259.59;6309471;20;3705449;-45
2024/01/22 09:53:11;;;;;;;;;98.33;71.33;;;;;-5.10;100.00;101252.91;6273433;20;3653387;-49
2024/01/22 09:55:42;;;;;;;;;85.33;62.33;;;;;-5.11;100.00;101256.38;6311906;20;3646120;-46
2024/01/22 09:58:20;;;;;;;;;97.00;69.00;;;;;-4.96;100.00;101245.41;6311030;20;3673204;-49
2024/01/22 10:00:50;;;;;;;;;106.33;68.33;;;;;-4.80;100.00;101241.47;6272028;20;4459707;-47
2024/01/22 10:03:21;;;;;;;;;106.67;77.67;;;;;-4.57;100.00;101235.94;6308259;20;3680588;-47
2024/01/22 10:05:53;;;;;;;;;142.67;97.67;;;;;-4.42;100.00;101234.56;6278781;20;3715919;-47
2024/01/22 10:08:23;;;;;;;;;102.00;72.33;;;;;-4.37;100.00;101231.16;6272671;20;3669133;-47
2024/01/22 10:10:54;;;;;;;;;205.50;156.75;;;;;-4.46;100.00;101232.72;6307560;20;3739913;-46
2024/01/22 10:13:24;;;;;;;;;171.67;113.00;;;;;-4.68;100.00;101225.19;6274322;20;3713854;-48
2024/01/22 10:15:53;;;;;;;;;104.67;75.00;;;;;-4.74;100.00;101223.31;6279779;20;3670045;-49
2024/01/22 10:18:23;;;;;;;;;99.33;66.33;;;;;-4.57;100.00;101220.22;6277431;20;3677336;-47
2024/01/22 10:20:57;;;;;;;;;146.67;99.67;;;;;-4.65;100.00;101212.16;6310117;20;3700244;-47
2024/01/22 10:23:27;;;;;;;;;136.67;101.67;;;;;-4.25;100.00;101200.00;6278273;20;3714958;-47
2024/01/22 10:26:15;;;;;;;;;111.33;77.33;;;;;-4.03;100.00;101196.09;6277369;20;3674273;-46
2024/01/22 10:28:45;;;;;;;;;112.67;77.33;;;;;-4.16;100.00;101189.72;6311573;20;3683584;-48
2024/01/22 10:31:14;;;;;;;;;114.33;78.00;;;;;-3.91;100.00;101185.88;6310728;20;3689837;-47
2024/01/22 10:33:48;;;;;;;;;95.33;66.33;;;;;-4.71;100.00;101177.97;6276655;20;3665000;-46
2024/01/22 10:36:21;;;;;;;;;117.00;89.00;;;;;-4.11;100.00;101187.19;6310385;20;3694092;-47
2024/01/22 10:39:04;;;;;;;;;130.67;97.67;;;;;-4.46;100.00;101185.53;6280416;20;3691978;-50
2024/01/22 10:41:35;;;;;;;;;119.67;90.67;;;;;-4.41;100.00;101183.03;6277469;20;3681626;-47
2024/01/22 10:44:05;;;;;;;;;112.67;86.67;;;;;-4.12;100.00;101177.56;6277788;20;3708589;-47
2024/01/22 10:46:37;;;;;;;;;102.67;71.33;;;;;-3.28;100.00;101188.91;6275821;20;3655457;-51
2024/01/22 10:49:07;;;;;;;;;90.33;66.00;;;;;-3.60;100.00;101186.53;6310095;20;3658581;-50
2024/01/22 10:51:40;;;;;;;;;100.67;73.00;;;;;-3.92;100.00;101181.50;6307233;20;3670053;-48
2024/01/22 10:54:11;;;;;;;;;160.75;114.25;;;;;-4.09;100.00;101161.88;6307671;20;4500356;-46
2024/01/22 10:56:46;;;;;;;;;104.33;78.67;;;;;-3.85;100.00;101153.66;6309591;20;3673286;-48